Time;durP1;ratioP1;P1;durP2;ratioP2;P2;SDS_P1;SDS_P2;PMS_P1;PMS_P2;Temp;Humidity;BMP_temperature;BMP_pressure;BME280_temperature;BME280_humidity;BME280_pressure;Samples;Min_cycle;Max_cycle;Signal;HPM_P1;HPM_P2
2023/05/27 00:02:04;;;;;;;7.77;7.17;;;;;;;17.43;100.00;-18235.69;6244463;23;20549;-61
2023/05/27 00:04:31;;;;;;;7.23;6.67;;;;;;;17.35;100.00;-18231.88;6243779;23;20157;-61
2023/05/27 00:06:59;;;;;;;7.13;6.77;;;;;;;17.40;100.00;-18232.97;6244084;23;20233;-62
2023/05/27 00:09:27;;;;;;;7.20;6.60;;;;;;;17.41;100.00;-17590.78;6243736;23;20157;-62
2023/05/27 00:11:53;;;;;;;6.73;6.33;;;;;;;17.31;100.00;-17909.72;6243785;23;20239;-62
2023/05/27 00:14:21;;;;;;;6.40;6.10;;;;;;;17.44;100.00;-18234.03;6244296;23;20168;-62
2023/05/27 00:16:49;;;;;;;6.70;6.40;;;;;;;17.51;100.00;-17914.41;6244198;23;20188;-62
2023/05/27 00:19:17;;;;;;;8.90;6.60;;;;;;;17.55;100.00;-17915.22;6243855;23;20163;-62
2023/05/27 00:21:44;;;;;;;7.00;6.60;;;;;;;17.55;100.00;-17272.56;6243805;23;20157;-61
2023/05/27 00:24:13;;;;;;;6.60;6.00;;;;;;;17.60;100.00;-16630.75;6244002;23;20156;-62
2023/05/27 00:26:40;;;;;;;7.00;6.47;;;;;;;17.63;100.00;-15666.69;6243420;23;20204;-61
2023/05/27 00:29:06;;;;;;;7.23;6.93;;;;;;;17.70;100.00;-15024.63;6217549;23;20157;-63
2023/05/27 00:31:34;;;;;;;8.13;6.27;;;;;;;17.72;100.00;-14059.78;6244274;23;20505;-63
2023/05/27 00:34:01;;;;;;;7.47;6.17;;;;;;;17.82;100.00;-14061.31;6243830;23;20157;-62
2023/05/27 00:36:28;;;;;;;6.63;6.23;;;;;;;17.68;100.00;-14059.09;6243686;23;20163;-62
2023/05/27 00:38:55;;;;;;;6.70;6.40;;;;;;;17.69;100.00;-14059.25;6243782;23;20164;-62
2023/05/27 00:41:24;;;;;;;7.07;6.33;;;;;;;17.79;100.00;-13739.13;6244478;23;20179;-62
2023/05/27 00:43:51;;;;;;;6.70;6.40;;;;;;;17.76;100.00;-12450.88;6243646;23;20204;-62
2023/05/27 00:46:19;;;;;;;8.57;7.83;;;;;;;17.86;100.00;-12130.13;6243873;23;20192;-62
2023/05/27 00:48:47;;;;;;;7.50;7.20;;;;;;;17.90;100.00;-11164.31;6245551;23;20244;-62
2023/05/27 00:51:14;;;;;;;7.67;7.27;;;;;;;17.88;100.00;-10519.56;6246170;23;20586;-61
2023/05/27 00:53:42;;;;;;;8.17;7.77;;;;;;;17.95;100.00;-9875.72;6245596;23;20160;-62
2023/05/27 00:56:09;;;;;;;8.20;7.50;;;;;;;17.97;100.00;-9231.16;6245977;23;20156;-61
2023/05/27 00:58:38;;;;;;;7.83;7.53;;;;;;;17.94;100.00;-8586.00;6245863;23;20488;-62
2023/05/27 01:01:07;;;;;;;8.33;7.67;;;;;;;17.96;100.00;-8263.66;6245709;23;20224;-62
2023/05/27 01:03:35;;;;;;;8.60;8.00;;;;;;;17.92;100.00;-9230.69;6245428;23;20161;-62
2023/05/27 01:06:12;;;;;;;8.60;8.13;;;;;;;17.83;100.00;-9229.84;6245779;23;20555;-62
2023/05/27 01:08:49;;;;;;;8.63;8.13;;;;;;;17.88;100.00;-9875.03;6245653;23;20224;-62
2023/05/27 01:11:21;;;;;;;9.03;8.47;;;;;;;17.82;100.00;-9874.41;6245737;23;20163;-62
2023/05/27 01:13:55;;;;;;;8.30;7.97;;;;;;;17.80;100.00;-10518.75;6245786;23;20504;-62
2023/05/27 01:16:24;;;;;;;9.20;8.37;;;;;;;17.70;100.00;-10195.38;6245608;23;20156;-63
2023/05/27 01:18:54;;;;;;;8.10;7.70;;;;;;;17.46;100.00;-10192.78;6245430;23;20162;-62
2023/05/27 01:21:24;;;;;;;7.80;7.33;;;;;;;17.57;100.00;-10838.13;6245224;23;20157;-62
2023/05/27 01:23:52;;;;;;;7.77;7.37;;;;;;;17.54;100.00;-10515.75;6245550;23;20157;-63
2023/05/27 01:26:19;;;;;;;7.30;6.80;;;;;;;17.52;100.00;-10837.53;6245447;23;20164;-63
2023/05/27 01:28:46;;;;;;;7.43;6.87;;;;;;;17.48;100.00;-10515.06;6245135;23;20260;-62
2023/05/27 01:31:17;;;;;;;6.97;6.63;;;;;;;17.48;100.00;-10192.97;6245133;23;20163;-62
2023/05/27 01:33:51;;;;;;;7.40;6.90;;;;;;;17.35;100.00;-10191.63;6245148;23;20176;-62
2023/05/27 01:36:21;;;;;;;8.43;6.73;;;;;;;17.37;100.00;-10513.81;6245270;23;20236;-62
2023/05/27 01:38:50;;;;;;;6.77;6.47;;;;;;;17.47;100.00;-10514.91;6245475;23;20161;-61
2023/05/27 01:41:19;;;;;;;7.50;6.77;;;;;;;17.43;100.00;-9548.25;6245055;23;20164;-63
2023/05/27 01:43:46;;;;;;;11.97;7.07;;;;;;;17.46;100.00;-9870.72;6245112;23;20203;-61
2023/05/27 01:46:13;;;;;;;8.87;7.00;;;;;;;17.48;100.00;-9548.78;6245412;23;20157;-62
2023/05/27 01:48:40;;;;;;;7.60;6.97;;;;;;;17.52;100.00;-8260.25;6245463;23;20204;-62
2023/05/27 01:51:07;;;;;;;7.97;7.27;;;;;;;17.48;100.00;-8904.41;6245112;23;20167;-62
2023/05/27 01:53:36;;;;;;;8.10;7.77;;;;;;;17.20;100.00;-8901.94;6244834;23;20157;-62
2023/05/27 01:56:03;;;;;;;8.03;7.60;;;;;;;17.41;100.00;-9870.19;6245210;23;20226;-62
2023/05/27 01:58:32;;;;;;;8.87;8.27;;;;;;;17.32;100.00;-10513.22;6244721;23;20593;-62
2023/05/27 02:00:58;;;;;;;9.17;8.43;;;;;;;17.31;100.00;-10835.13;6245259;23;20160;-62
2023/05/27 02:03:26;;;;;;;10.63;9.60;;;;;;;17.35;100.00;-10513.63;6245223;23;20600;-62
2023/05/27 02:05:53;;;;;;;11.03;8.40;;;;;;;17.39;100.00;-10835.97;6245092;23;20161;-63
2023/05/27 02:08:20;;;;;;;9.93;9.20;;;;;;;17.43;100.00;-10192.47;6245159;23;20181;-63
2023/05/27 02:10:47;;;;;;;11.67;8.47;;;;;;;17.43;100.00;-9548.25;6244799;23;20239;-62
2023/05/27 02:13:14;;;;;;;7.60;7.17;;;;;;;17.46;100.00;-8582.06;6244822;23;20169;-63
2023/05/27 02:15:43;;;;;;;7.17;6.67;;;;;;;17.38;100.00;-7292.34;6244933;23;20168;-61
2023/05/27 02:18:09;;;;;;;7.13;6.63;;;;;;;17.35;100.00;-7614.50;6245206;23;20560;-62
2023/05/27 02:20:36;;;;;;;7.60;7.07;;;;;;;17.32;100.00;-7614.28;6245279;23;20157;-61
2023/05/27 02:23:07;;;;;;;6.90;6.30;;;;;;;17.24;100.00;-7613.75;6245415;23;20156;-62
2023/05/27 02:25:34;;;;;;;7.57;6.50;;;;;;;17.06;100.00;-7934.59;6244848;23;20163;-63
2023/05/27 02:28:02;;;;;;;6.60;6.27;;;;;;;17.27;100.00;-8258.31;6244793;23;20185;-61
2023/05/27 02:30:29;;;;;;;7.03;6.33;;;;;;;17.27;100.00;-7936.16;6244590;23;20165;-62
2023/05/27 02:32:58;;;;;;;7.83;7.03;;;;;;;17.39;100.00;-6970.13;6217938;23;20170;-62
2023/05/27 02:35:25;;;;;;;7.53;7.07;;;;;;;17.50;100.00;-6003.41;6244973;23;20163;-61
2023/05/27 02:37:52;;;;;;;8.33;7.80;;;;;;;17.55;100.00;-5035.88;6244950;23;20157;-63
2023/05/27 02:40:25;;;;;;;8.63;7.67;;;;;;;17.57;100.00;-4713.28;6244802;23;20196;-62
2023/05/27 02:42:52;;;;;;;7.23;6.70;;;;;;;17.67;100.00;-4068.00;6244525;23;20200;-61
2023/05/27 02:45:19;;;;;;;10.70;7.00;;;;;;;17.59;100.00;-2130.91;6244449;23;20196;-62
2023/05/27 02:47:46;;;;;;;8.00;6.30;;;;;;;17.68;100.00;-1161.63;6244755;23;20207;-63
2023/05/27 02:50:14;;;;;;;6.43;6.03;;;;;;;17.65;100.00;-1161.75;6244834;23;20204;-63
2023/05/27 02:52:41;;;;;;;7.53;6.47;;;;;;;17.55;100.00;-2131.00;6245049;23;20160;-62
2023/05/27 02:55:09;;;;;;;5.77;5.47;;;;;;;17.59;100.00;-2453.81;6245006;23;20576;-61
2023/05/27 02:57:36;;;;;;;6.53;5.93;;;;;;;17.59;100.00;-1807.97;6244295;23;20171;-63
2023/05/27 03:00:03;;;;;;;6.43;6.03;;;;;;;17.59;100.00;-515.84;6244750;23;20188;-63
2023/05/27 03:02:30;;;;;;;6.60;6.00;;;;;;;17.67;100.00;130.81;6244445;23;20161;-63
2023/05/27 03:05:00;;;;;;;6.03;5.60;;;;;;;17.70;100.00;777.50;6245033;23;20588;-62
2023/05/27 03:07:30;;;;;;;6.60;6.20;;;;;;;17.80;100.00;4336.66;6244221;23;20187;-62
2023/05/27 03:09:57;;;;;;;7.07;6.30;;;;;;;17.83;100.00;4336.97;6244619;23;20184;-62
2023/05/27 03:12:23;;;;;;;6.37;5.87;;;;;;;18.13;100.00;6608.50;6244611;23;20197;-62
2023/05/27 03:14:51;;;;;;;6.27;5.87;;;;;;;18.69;100.00;14736.44;6244156;23;20163;-63
2023/05/27 03:17:20;;;;;;;11.10;5.27;;;;;;;19.26;100.00;32374.44;6244654;23;20157;-62
2023/05/27 03:19:48;;;;;;;6.13;5.53;;;;;;;19.77;100.00;61674.34;6244366;23;20196;-62
2023/05/27 03:22:15;;;;;;;6.47;5.97;;;;;;;19.89;100.00;93550.88;6244705;23;20547;-63
2023/05/27 03:24:44;;;;;;;24.67;7.93;;;;;;;20.46;100.00;106346.88;6244494;23;20153;-62
2023/05/27 03:27:11;;;;;;;15.70;7.53;;;;;;;20.27;100.00;123433.50;6244421;23;20191;-62
2023/05/27 03:29:38;;;;;;;13.60;6.33;;;;;;;20.14;100.00;109638.13;6244154;23;20157;-63
2023/05/27 03:32:05;;;;;;;6.10;5.50;;;;;;;20.14;100.00;113661.97;6244249;23;20228;-63
2023/05/27 03:34:32;;;;;;;6.07;5.57;;;;;;;19.96;100.00;111617.41;6243967;23;20172;-63
2023/05/27 03:36:59;;;;;;;5.17;4.77;;;;;;;20.09;100.00;112982.41;6244480;23;20254;-62
2023/05/27 03:39:26;;;;;;;6.20;5.30;;;;;;;20.14;100.00;117019.69;6244335;23;20153;-63
2023/05/27 03:41:54;;;;;;;4.90;4.50;;;;;;;20.27;100.00;125453.19;6244067;23;20495;-62
2023/05/27 03:44:21;;;;;;;4.83;4.53;;;;;;;20.34;100.00;140654.44;6244550;23;20239;-63
2023/05/27 03:46:48;;;;;;;5.13;4.60;;;;;;;20.44;100.00;151176.84;6244348;23;20196;-63
2023/05/27 03:49:15;;;;;;;4.53;4.03;;;;;;;20.45;100.00;151178.13;6244100;23;20181;-62
2023/05/27 03:51:43;;;;;;;4.77;4.40;;;;;;;20.47;100.00;151184.47;6244450;23;20559;-63
2023/05/27 03:54:10;;;;;;;5.50;4.60;;;;;;;20.74;100.00;151250.72;6244361;23;20495;-63
2023/05/27 03:56:36;;;;;;;5.70;5.40;;;;;;;21.17;100.00;151359.06;6243976;23;20156;-62
2023/05/27 03:59:06;;;;;;;4.50;4.20;;;;;;;21.17;100.00;151360.34;6244299;23;20168;-63
2023/05/27 04:01:32;;;;;;;5.17;4.70;;;;;;;21.02;100.00;151320.75;6244347;23;20717;-62
2023/05/27 04:03:59;;;;;;;7.10;4.60;;;;;;;21.30;100.00;151392.19;6243953;23;20161;-63
2023/05/27 04:06:26;;;;;;;4.83;4.30;;;;;;;21.51;100.00;151444.44;6243882;23;20248;-62
2023/05/27 04:08:53;;;;;;;4.23;3.93;;;;;;;21.63;100.00;151475.00;6243967;23;20271;-63
2023/05/27 04:11:20;;;;;;;4.70;4.27;;;;;;;21.65;100.00;151480.09;6243776;23;20157;-62
2023/05/27 04:13:48;;;;;;;4.43;4.15;;;;;;;21.85;100.00;151531.09;6244129;23;20165;-63
2023/05/27 04:16:17;;;;;;;5.75;4.55;;;;;;;21.98;100.00;151564.25;6244044;23;20157;-62
2023/05/27 04:18:48;;;;;;;4.55;4.25;;;;;;;22.24;100.00;151630.56;6243614;23;20165;-62
2023/05/27 04:21:15;;;;;;;4.70;4.40;;;;;;;22.45;100.00;151681.59;6243713;23;20192;-64
2023/05/27 04:23:42;;;;;;;8.57;4.38;;;;;;;22.67;100.00;151737.69;6246370;23;20630;-62
2023/05/27 04:26:09;;;;;;;4.45;4.05;;;;;;;22.85;100.00;151782.38;6246389;23;20450;-62
2023/05/27 04:28:38;;;;;;;4.93;4.65;;;;;;;22.91;100.00;151797.72;6245706;23;20187;-63
2023/05/27 04:31:05;;;;;;;4.65;4.40;;;;;;;22.91;100.00;151799.00;6245769;23;20485;-63
2023/05/27 04:33:34;;;;;;;3.92;3.75;;;;;;;23.12;100.00;151851.28;6245891;23;20256;-62
2023/05/27 04:36:02;;;;;;;4.22;4.03;;;;;;;23.19;100.00;151870.41;6246534;23;20156;-62
2023/05/27 04:38:31;;;;;;;4.45;4.10;;;;;;;23.32;100.00;151901.03;6245888;23;20211;-62
2023/05/27 04:40:58;;;;;;;4.25;3.85;;;;;;;23.43;100.00;151929.09;6246221;23;20160;-62
2023/05/27 04:43:26;;;;;;;4.60;4.13;;;;;;;23.67;100.00;151990.44;6245809;23;20235;-62
2023/05/27 04:45:53;;;;;;;6.53;4.70;;;;;;;23.78;100.00;152017.22;6245896;23;20223;-63
2023/05/27 04:48:23;;;;;;;5.00;4.60;;;;;;;23.55;100.00;151959.81;6245923;23;20645;-63
2023/05/27 04:50:53;;;;;;;4.55;4.30;;;;;;;23.65;100.00;151986.59;6245747;23;20156;-63
2023/05/27 04:53:20;;;;;;;6.90;4.57;;;;;;;23.50;100.00;151947.03;6245670;23;20161;-63
2023/05/27 04:55:47;;;;;;;4.30;4.00;;;;;;;23.29;100.00;151893.41;6246064;23;20556;-63
2023/05/27 04:58:13;;;;;;;4.60;4.10;;;;;;;22.94;100.00;151805.34;6245615;23;20165;-62
2023/05/27 05:00:49;;;;;;;4.97;4.55;;;;;;;22.97;100.00;151813.00;6245755;23;20592;-63
2023/05/27 05:03:20;;;;;;;5.45;5.00;;;;;;;22.69;100.00;151742.84;6245439;23;20163;-64
2023/05/27 05:05:53;;;;;;;6.53;6.13;;;;;;;22.28;100.00;151640.75;6245454;23;20165;-62
2023/05/27 05:08:20;;;;;;;6.47;6.00;;;;;;;21.78;100.00;151514.50;6245510;23;20181;-63
2023/05/27 05:10:48;;;;;;;5.10;4.70;;;;;;;21.47;100.00;151434.25;6245438;23;20596;-63
2023/05/27 05:13:16;;;;;;;5.07;4.80;;;;;;;21.59;100.00;151464.81;6245479;23;20157;-62
2023/05/27 05:15:43;;;;;;;5.07;4.60;;;;;;;21.49;100.00;151440.59;6245524;23;20240;-62
2023/05/27 05:18:11;;;;;;;7.67;4.80;;;;;;;21.32;100.00;151397.25;6219028;23;20232;-63
2023/05/27 05:20:38;;;;;;;4.90;4.50;;;;;;;21.28;100.00;151387.06;6245395;23;20157;-63
2023/05/27 05:23:09;;;;;;;5.40;4.75;;;;;;;21.02;100.00;151322.03;6245658;23;20449;-63
2023/05/27 05:25:37;;;;;;;5.53;5.03;;;;;;;21.09;100.00;151339.84;6245259;23;20219;-63
2023/05/27 05:28:05;;;;;;;4.87;4.60;;;;;;;21.14;100.00;151351.38;6245309;23;20177;-63
2023/05/27 05:30:32;;;;;;;7.17;5.77;;;;;;;21.28;100.00;151388.34;6245674;23;20161;-62
2023/05/27 05:32:59;;;;;;;5.33;4.93;;;;;;;21.36;100.00;151408.72;6245637;23;20161;-62
2023/05/27 05:35:25;;;;;;;5.70;5.18;;;;;;;21.40;100.00;151417.66;6245506;23;20163;-62
2023/05/27 05:37:52;;;;;;;5.90;5.40;;;;;;;21.30;100.00;151392.19;6245735;23;20192;-62
2023/05/27 05:40:23;;;;;;;8.82;5.43;;;;;;;21.32;100.00;151398.53;6245127;23;20171;-63
2023/05/27 05:42:49;;;;;;;5.95;5.65;;;;;;;21.33;100.00;151401.09;6245452;23;20655;-63
2023/05/27 05:45:16;;;;;;;6.72;5.53;;;;;;;21.50;100.00;151443.16;6245126;23;20157;-63
2023/05/27 05:47:43;;;;;;;6.65;6.25;;;;;;;21.56;100.00;151458.41;6218761;23;20161;-62
2023/05/27 05:50:11;;;;;;;5.57;5.28;;;;;;;21.45;100.00;151429.13;6245508;23;20488;-63
2023/05/27 05:52:38;;;;;;;7.30;5.60;;;;;;;21.42;100.00;151424.03;6245082;23;20169;-63
2023/05/27 05:55:05;;;;;;;6.33;5.70;;;;;;;21.43;100.00;151426.56;6245358;23;20211;-62
2023/05/27 05:57:34;;;;;;;6.00;5.50;;;;;;;21.53;100.00;151450.78;6245167;23;20260;-63
2023/05/27 06:00:01;;;;;;;6.47;5.93;;;;;;;21.33;100.00;151399.81;6244860;23;20153;-64
2023/05/27 06:02:28;;;;;;;5.87;5.60;;;;;;;21.34;100.00;151402.38;6245311;23;20157;-62
2023/05/27 06:04:54;;;;;;;6.10;5.73;;;;;;;21.41;100.00;151421.50;6245310;23;20183;-62
2023/05/27 06:07:21;;;;;;;6.10;5.38;;;;;;;21.42;100.00;151422.75;6245258;23;20584;-62
2023/05/27 06:09:49;;;;;;;6.07;5.75;;;;;;;21.29;100.00;151390.91;6245185;23;20177;-62
2023/05/27 06:12:16;;;;;;;14.57;7.65;;;;;;;21.35;100.00;151406.16;6245347;23;20165;-63
2023/05/27 06:14:44;;;;;;;7.30;6.80;;;;;;;21.35;100.00;151406.16;6244970;23;20157;-62
2023/05/27 06:17:11;;;;;;;7.07;6.40;;;;;;;21.43;100.00;150628.94;6244950;23;20160;-63
2023/05/27 06:19:38;;;;;;;7.13;6.35;;;;;;;21.44;100.00;151427.84;6244795;23;20185;-62
2023/05/27 06:22:05;;;;;;;8.10;6.82;;;;;;;21.57;100.00;151460.97;6245072;23;20167;-62
2023/05/27 06:24:32;;;;;;;9.15;6.35;;;;;;;21.61;100.00;151471.16;6244849;23;20219;-63
2023/05/27 06:27:00;;;;;;;9.00;7.03;;;;;;;21.64;100.00;151477.56;6244749;23;20157;-62
2023/05/27 06:29:27;;;;;;;12.38;6.50;;;;;;;21.65;100.00;151480.09;6245010;23;20259;-62
2023/05/27 06:31:55;;;;;;;7.88;6.78;;;;;;;21.76;100.00;151508.16;6244712;23;20168;-62
2023/05/27 06:34:22;;;;;;;7.25;6.63;;;;;;;21.67;100.00;151485.22;6245203;23;20157;-63
2023/05/27 06:36:49;;;;;;;9.45;6.57;;;;;;;21.60;100.00;151467.38;6245017;23;20157;-63
2023/05/27 06:39:16;;;;;;;10.00;6.72;;;;;;;21.69;100.00;151491.56;6244932;23;20588;-63
2023/05/27 06:41:43;;;;;;;7.00;6.55;;;;;;;21.81;100.00;151520.91;6244540;23;20165;-63
2023/05/27 06:44:10;;;;;;;7.80;6.57;;;;;;;21.84;100.00;151528.53;6244862;23;20488;-62
2023/05/27 06:46:37;;;;;;;7.10;6.80;;;;;;;21.80;100.00;151519.63;6244506;23;20163;-62
2023/05/27 06:49:05;;;;;;;7.47;6.97;;;;;;;21.87;100.00;151537.47;6244500;23;20187;-63
2023/05/27 06:51:32;;;;;;;7.18;6.63;;;;;;;21.87;100.00;151536.19;6244883;23;20167;-61
2023/05/27 06:53:59;;;;;;;8.02;7.47;;;;;;;21.72;100.00;151497.97;6244796;23;20153;-62
2023/05/27 06:56:26;;;;;;;7.63;6.93;;;;;;;21.74;100.00;151503.03;6244297;23;20157;-63
2023/05/27 06:58:53;;;;;;;11.48;7.13;;;;;;;21.64;100.00;151478.81;6244604;23;20157;-63
2023/05/27 07:01:20;;;;;;;9.10;7.53;;;;;;;21.77;100.00;151510.66;6244452;23;20171;-63
2023/05/27 07:03:47;;;;;;;7.63;6.90;;;;;;;21.80;100.00;151518.34;6244714;23;20215;-62
2023/05/27 07:06:16;;;;;;;8.60;7.80;;;;;;;21.86;100.00;151534.91;6244776;23;20157;-62
2023/05/27 07:08:43;;;;;;;7.72;7.30;;;;;;;21.99;100.00;151566.81;6244531;23;20584;-62
2023/05/27 07:11:10;;;;;;;7.28;6.80;;;;;;;21.94;100.00;151554.06;6244476;23;20187;-62
2023/05/27 07:13:37;;;;;;;14.27;7.15;;;;;;;22.01;100.00;151571.94;6244495;23;20157;-62
2023/05/27 07:16:03;;;;;;;13.35;8.00;;;;;;;21.89;100.00;151541.31;6244733;23;20492;-62
2023/05/27 07:18:30;;;;;;;10.98;7.05;;;;;;;22.00;100.00;151569.38;6244629;23;20272;-62
2023/05/27 07:20:57;;;;;;;8.30;6.78;;;;;;;22.14;100.00;151605.09;6244547;23;20161;-63
2023/05/27 07:23:26;;;;;;;7.07;6.40;;;;;;;22.23;100.00;151626.78;6244645;23;20157;-62
2023/05/27 07:25:53;;;;;;;7.15;6.75;;;;;;;22.35;100.00;151656.09;6244277;23;20157;-62
2023/05/27 07:28:19;;;;;;;7.30;7.03;;;;;;;22.41;100.00;151672.63;6244478;23;20596;-62
2023/05/27 07:30:46;;;;;;;7.95;7.30;;;;;;;22.38;100.00;151663.72;6244605;23;20504;-63
2023/05/27 07:33:14;;;;;;;8.00;7.40;;;;;;;22.42;100.00;151673.91;6244556;23;20157;-63
2023/05/27 07:35:41;;;;;;;17.20;8.00;;;;;;;22.55;100.00;151707.09;6244173;23;20157;-63
2023/05/27 07:38:08;;;;;;;7.50;7.05;;;;;;;22.73;100.00;151753.06;6244115;23;20169;-62
2023/05/27 07:40:36;;;;;;;7.97;7.35;;;;;;;22.70;100.00;151746.66;6244219;23;20254;-62
2023/05/27 07:43:03;;;;;;;10.45;6.80;;;;;;;;;;6243949;23;20276;-63
2023/05/27 07:45:30;;;;;;;7.28;6.78;;;;;;;23.02;100.00;151825.75;6244190;23;20161;-63
2023/05/27 07:47:57;;;;;;;8.13;7.40;;;;;;;22.88;100.00;151791.31;6244373;23;20157;-63
2023/05/27 07:50:24;;;;;;;7.80;7.22;;;;;;;23.12;100.00;151852.56;6244225;23;20265;-62
2023/05/27 07:52:51;;;;;;;7.10;6.45;;;;;;;23.20;100.00;151871.69;6243891;23;20157;-62
2023/05/27 07:55:18;;;;;;;9.82;7.55;;;;;;;23.21;100.00;151874.28;6244355;23;20477;-62
2023/05/27 07:57:46;;;;;;;7.95;7.38;;;;;;;23.47;100.00;151939.34;6217076;23;20179;-62
2023/05/27 08:00:14;;;;;;;8.70;7.60;;;;;;;23.61;100.00;151976.38;6244124;23;20153;-62
2023/05/27 08:02:43;;;;;;;14.27;7.22;;;;;;;23.67;100.00;151991.72;6243867;23;20192;-62
2023/05/27 08:05:10;;;;;;;8.85;7.75;;;;;;;23.67;100.00;151990.44;6244260;23;20169;-62
2023/05/27 08:07:37;;;;;;;13.05;7.88;;;;;;;23.68;100.00;151992.94;6244348;23;20153;-62
2023/05/27 08:10:04;;;;;;;9.13;7.50;;;;;;;23.67;100.00;151991.72;6244205;23;20181;-63
2023/05/27 08:12:31;;;;;;;8.82;6.85;;;;;;;23.57;100.00;151966.19;6244217;23;20163;-63
2023/05/27 08:14:59;;;;;;;7.40;6.78;;;;;;;23.70;100.00;151998.09;6243887;23;20192;-63
2023/05/27 08:17:26;;;;;;;7.40;6.90;;;;;;;23.98;100.00;152068.25;6244240;23;20263;-62
2023/05/27 08:19:53;;;;;;;7.78;7.05;;;;;;;23.83;100.00;152030.00;6244048;23;20487;-62
2023/05/27 08:22:20;;;;;;;8.88;8.05;;;;;;;24.10;100.00;152100.16;6243881;23;20161;-62
2023/05/27 08:24:48;;;;;;;12.75;8.60;;;;;;;24.16;100.00;152113.00;6244184;23;20157;-63
2023/05/27 08:27:17;;;;;;;23.70;9.20;;;;;;;24.24;100.00;152134.72;6243864;23;20196;-62
2023/05/27 08:29:44;;;;;;;12.00;8.27;;;;;;;24.24;100.00;152134.72;6244235;23;20192;-62
2023/05/27 08:32:12;;;;;;;9.30;7.40;;;;;;;24.35;100.00;152162.81;6217607;23;20153;-63
2023/05/27 08:34:41;;;;;;;8.88;7.35;;;;;;;24.39;100.00;152171.75;6217399;23;20161;-62
2023/05/27 08:37:08;;;;;;;16.35;7.95;;;;;;;24.34;100.00;152158.97;6243736;23;20161;-62
2023/05/27 08:39:35;;;;;;;41.72;10.23;;;;;;;24.33;100.00;152156.41;6244119;23;20193;-61
2023/05/27 08:42:04;;;;;;;15.70;7.00;;;;;;;24.56;100.00;152215.19;6244066;23;20203;-63
2023/05/27 08:44:31;;;;;;;8.38;7.70;;;;;;;24.51;100.00;152202.41;6243786;23;20243;-63
2023/05/27 08:46:58;;;;;;;9.48;7.90;;;;;;;24.43;100.00;152183.25;6244074;23;20197;-62
2023/05/27 08:49:27;;;;;;;9.75;7.63;;;;;;;24.35;100.00;152162.81;6244092;23;20508;-62
2023/05/27 08:51:55;;;;;;;8.48;7.78;;;;;;;24.30;100.00;152150.06;6243751;23;20157;-61
2023/05/27 08:54:22;;;;;;;8.98;8.50;;;;;;;24.51;100.00;152202.41;6244140;23;20593;-62
2023/05/27 08:56:53;;;;;;;15.80;7.15;;;;;;;24.68;100.00;152245.81;6243750;23;20181;-62
2023/05/27 08:59:22;;;;;;;6.82;6.63;;;;;;;24.67;100.00;152241.97;6243838;23;20157;-63
2023/05/27 09:01:49;;;;;;;7.30;6.78;;;;;;;24.74;100.00;152259.88;6244071;23;20518;-62
2023/05/27 09:04:16;;;;;;;9.80;8.18;;;;;;;24.51;100.00;152202.41;6243750;23;20165;-62
2023/05/27 09:06:44;;;;;;;8.43;7.82;;;;;;;24.25;100.00;152136.00;6243746;23;20198;-62
2023/05/27 09:09:12;;;;;;;9.38;7.15;;;;;;;23.53;100.00;151954.69;6245260;23;20189;-62
2023/05/27 09:11:40;;;;;;;8.77;7.95;;;;;;;22.89;100.00;151793.88;6245534;23;20157;-62
2023/05/27 09:14:07;;;;;;;13.07;7.15;;;;;;;22.69;100.00;151742.84;6245582;23;20157;-62
2023/05/27 09:16:34;;;;;;;8.60;7.47;;;;;;;22.49;100.00;151691.81;6245428;23;20164;-62
2023/05/27 09:19:01;;;;;;;7.85;7.07;;;;;;;22.41;100.00;151671.34;6245843;23;20643;-62
2023/05/27 09:21:28;;;;;;;7.82;7.18;;;;;;;22.27;100.00;151638.25;6245398;23;20164;-63
2023/05/27 09:23:58;;;;;;;8.30;7.65;;;;;;;21.91;100.00;151545.09;6245361;23;20157;-63
2023/05/27 09:26:25;;;;;;;8.13;7.63;;;;;;;22.00;100.00;151569.38;6245676;23;20230;-63
2023/05/27 09:28:52;;;;;;;8.30;7.63;;;;;;;21.82;100.00;151524.72;6245136;23;20157;-63
2023/05/27 09:31:22;;;;;;;8.32;7.75;;;;;;;21.64;100.00;151477.56;6245364;23;20199;-62
2023/05/27 09:33:49;;;;;;;8.43;8.07;;;;;;;21.26;100.00;151383.22;6245244;23;20165;-62
2023/05/27 09:36:22;;;;;;;11.35;7.70;;;;;;;20.90;100.00;151291.47;6245169;23;20168;-62
2023/05/27 09:38:50;;;;;;;8.03;7.60;;;;;;;20.77;100.00;151258.34;6245207;23;20160;-63
2023/05/27 09:41:24;;;;;;;8.80;8.20;;;;;;;20.82;100.00;151271.09;6245211;23;20200;-62
2023/05/27 09:43:56;;;;;;;9.93;7.63;;;;;;;21.16;100.00;151357.78;6244862;23;20203;-62
2023/05/27 09:46:25;;;;;;;10.73;8.43;;;;;;;21.23;100.00;151375.59;6245060;23;20659;-63
2023/05/27 09:48:54;;;;;;;15.67;8.60;;;;;;;21.41;100.00;151421.50;6245061;23;20153;-63
2023/05/27 09:51:21;;;;;;;11.85;7.60;;;;;;;21.43;100.00;151426.56;6245326;23;20212;-62
2023/05/27 09:53:48;;;;;;;8.60;7.77;;;;;;;21.32;100.00;151398.53;6245030;23;20157;-62
2023/05/27 09:56:15;;;;;;;9.88;8.18;;;;;;;21.07;100.00;143762.72;6245112;23;20156;-62
2023/05/27 09:58:44;;;;;;;7.87;7.07;;;;;;;21.10;100.00;151342.41;6245402;23;20157;-63
2023/05/27 10:01:12;;;;;;;9.37;8.47;;;;;;;21.15;100.00;151353.94;6245534;23;20152;-62
2023/05/27 10:03:42;;;;;;;8.95;8.23;;;;;;;20.96;100.00;143995.53;6244879;23;20199;-63
2023/05/27 10:06:11;;;;;;;12.60;8.43;;;;;;;20.86;100.00;130972.75;6244870;23;20168;-61
2023/05/27 10:08:38;;;;;;;9.40;8.67;;;;;;;20.92;100.00;114482.75;6244751;23;20169;-62
2023/05/27 10:11:06;;;;;;;11.47;8.87;;;;;;;20.83;100.00;97038.94;6244819;23;20187;-62
2023/05/27 10:13:33;;;;;;;10.40;8.87;;;;;;;20.62;100.00;76347.63;6245553;23;20487;-63
2023/05/27 10:16:01;;;;;;;13.67;10.30;;;;;;;20.63;100.00;63749.16;6245291;23;20180;-62
2023/05/27 10:18:30;;;;;;;14.37;9.97;;;;;;;20.63;100.00;56475.78;6245417;23;20565;-63
2023/05/27 10:20:58;;;;;;;11.20;9.87;;;;;;;20.75;100.00;59462.16;6244456;23;20179;-63
2023/05/27 10:23:27;;;;;;;13.97;10.33;;;;;;;20.95;100.00;63784.16;6245140;23;20161;-62
2023/05/27 10:25:55;;;;;;;10.40;9.60;;;;;;;20.77;100.00;63765.00;6245159;23;20156;-63
2023/05/27 10:28:27;;;;;;;10.17;9.37;;;;;;;20.45;100.00;54148.88;6244652;23;20157;-61
2023/05/27 10:30:54;;;;;;;10.40;9.47;;;;;;;20.05;100.00;33403.00;6244471;23;20180;-62
2023/05/27 10:33:30;;;;;;;11.43;10.33;;;;;;;19.93;100.00;14446.84;6245020;23;20164;-62
2023/05/27 10:35:57;;;;;;;13.57;11.23;;;;;;;19.89;100.00;1441.09;6244882;23;20160;-62
2023/05/27 10:38:24;;;;;;;12.80;11.97;;;;;;;19.78;100.00;-5041.63;6244937;23;20631;-62
2023/05/27 10:41:00;;;;;;;14.73;12.63;;;;;;;19.53;100.00;-13122.03;6244792;23;20175;-62
2023/05/27 10:43:28;;;;;;;13.43;12.40;;;;;;;19.30;100.00;-18279.94;6244371;23;20200;-63
2023/05/27 10:46:02;;;;;;;13.33;12.40;;;;;;;19.32;100.00;-18280.41;6244931;23;20157;-62
2023/05/27 10:48:33;;;;;;;10.13;9.20;;;;;;;19.13;100.00;-18275.88;6244425;23;20240;-63
2023/05/27 10:51:02;;;;;;;11.70;8.60;;;;;;;18.92;100.00;-18270.97;6244326;23;20188;-60
2023/05/27 10:53:29;;;;;;;14.67;8.20;;;;;;;18.56;100.00;-18262.38;6244533;23;20252;-60
2023/05/27 10:55:59;;;;;;;24.37;9.17;;;;;;;18.46;100.00;-18258.19;6245103;23;20196;-63
2023/05/27 10:58:27;;;;;;;10.43;9.10;;;;;;;18.38;100.00;-18256.28;6244842;23;20161;-60
2023/05/27 11:00:56;;;;;;;9.03;7.80;;;;;;;18.35;100.00;-18257.34;6244822;23;20153;-61
2023/05/27 11:03:25;;;;;;;7.73;7.03;;;;;;;18.00;100.00;-17925.75;6244375;23;20157;-63
2023/05/27 11:06:04;;;;;;;13.43;12.50;;;;;;;17.89;100.00;-17923.06;6244722;23;20552;-60
2023/05/27 11:08:32;;;;;;;15.30;14.20;;;;;;;17.95;100.00;-18246.00;6244650;23;20157;-59
2023/05/27 11:11:00;;;;;;;15.63;14.43;;;;;;;17.99;100.00;-18246.97;6244529;23;20635;-59
2023/05/27 11:13:34;;;;;;;18.10;16.50;;;;;;;17.92;100.00;-18245.41;6244347;23;20248;-59
2023/05/27 11:16:03;;;;;;;18.57;17.13;;;;;;;17.97;100.00;-18246.50;6244186;23;20240;-59
2023/05/27 11:18:37;;;;;;;19.20;17.60;;;;;;;17.97;100.00;-18246.59;6244464;23;20487;-58
2023/05/27 11:21:06;;;;;;;25.97;19.20;;;;;;;18.10;100.00;-18249.59;6244292;23;20156;-58